sensor_id;sensor_type;location;lat;lon;timestamp;P1;durP1;ratioP1;P2;durP2;ratioP2
32734;SDS011;19112;51.076;3.706;2022-11-20T00:02:19;107.18;;;40.38;;
32734;SDS011;19112;51.076;3.706;2022-11-20T00:05:45;95.70;;;38.53;;
32734;SDS011;19112;51.076;3.706;2022-11-20T00:11:50;88.45;;;35.80;;
32734;SDS011;19112;51.076;3.706;2022-11-20T00:14:20;98.57;;;37.92;;
32734;SDS011;19112;51.076;3.706;2022-11-20T00:17:13;99.20;;;38.67;;
32734;SDS011;19112;51.076;3.706;2022-11-20T00:19:45;93.32;;;37.22;;
32734;SDS011;19112;51.076;3.706;2022-11-20T00:22:18;96.47;;;40.30;;
32734;SDS011;19112;51.076;3.706;2022-11-20T00:27:39;114.00;;;39.05;;
32734;SDS011;19112;51.076;3.706;2022-11-20T00:30:15;98.38;;;38.20;;
32734;SDS011;19112;51.076;3.706;2022-11-20T00:36:11;100.20;;;37.00;;
32734;SDS011;19112;51.076;3.706;2022-11-20T00:38:58;105.40;;;38.22;;
32734;SDS011;19112;51.076;3.706;2022-11-20T00:41:25;103.07;;;39.47;;
32734;SDS011;19112;51.076;3.706;2022-11-20T00:44:12;105.70;;;39.47;;
32734;SDS011;19112;51.076;3.706;2022-11-20T00:46:54;103.00;;;36.72;;
32734;SDS011;19112;51.076;3.706;2022-11-20T00:49:43;108.22;;;38.35;;
32734;SDS011;19112;51.076;3.706;2022-11-20T00:52:27;99.38;;;37.92;;
32734;SDS011;19112;51.076;3.706;2022-11-20T00:55:05;107.05;;;39.95;;
32734;SDS011;19112;51.076;3.706;2022-11-20T00:57:56;97.88;;;37.53;;
32734;SDS011;19112;51.076;3.706;2022-11-20T01:00:48;86.82;;;35.78;;
32734;SDS011;19112;51.076;3.706;2022-11-20T01:03:52;93.47;;;37.65;;
32734;SDS011;19112;51.076;3.706;2022-11-20T01:06:23;97.30;;;38.08;;
32734;SDS011;19112;51.076;3.706;2022-11-20T01:09:18;97.50;;;36.83;;
32734;SDS011;19112;51.076;3.706;2022-11-20T01:15:05;88.40;;;34.33;;
32734;SDS011;19112;51.076;3.706;2022-11-20T01:19:59;92.95;;;37.35;;
32734;SDS011;19112;51.076;3.706;2022-11-20T01:26:29;95.75;;;38.13;;
32734;SDS011;19112;51.076;3.706;2022-11-20T01:29:22;87.07;;;36.35;;
32734;SDS011;19112;51.076;3.706;2022-11-20T01:32:34;94.35;;;35.20;;
32734;SDS011;19112;51.076;3.706;2022-11-20T01:35:52;86.47;;;34.50;;
32734;SDS011;19112;51.076;3.706;2022-11-20T01:38:35;89.45;;;38.08;;
32734;SDS011;19112;51.076;3.706;2022-11-20T01:48:42;89.90;;;35.50;;
32734;SDS011;19112;51.076;3.706;2022-11-20T01:55:13;84.18;;;33.47;;
32734;SDS011;19112;51.076;3.706;2022-11-20T01:57:52;83.82;;;32.97;;
32734;SDS011;19112;51.076;3.706;2022-11-20T02:00:28;80.82;;;33.00;;
32734;SDS011;19112;51.076;3.706;2022-11-20T02:03:29;87.95;;;36.13;;
32734;SDS011;19112;51.076;3.706;2022-11-20T02:09:33;82.72;;;31.48;;
32734;SDS011;19112;51.076;3.706;2022-11-20T02:12:41;80.07;;;28.98;;
32734;SDS011;19112;51.076;3.706;2022-11-20T02:19:54;85.20;;;33.97;;
32734;SDS011;19112;51.076;3.706;2022-11-20T02:22:27;75.80;;;31.85;;
32734;SDS011;19112;51.076;3.706;2022-11-20T02:24:58;85.05;;;34.75;;
32734;SDS011;19112;51.076;3.706;2022-11-20T02:27:33;90.95;;;35.63;;
32734;SDS011;19112;51.076;3.706;2022-11-20T02:30:00;88.30;;;35.17;;
32734;SDS011;19112;51.076;3.706;2022-11-20T02:32:34;83.53;;;33.38;;
32734;SDS011;19112;51.076;3.706;2022-11-20T02:37:48;78.95;;;33.65;;
32734;SDS011;19112;51.076;3.706;2022-11-20T02:40:17;86.47;;;33.13;;
32734;SDS011;19112;51.076;3.706;2022-11-20T02:42:47;91.10;;;35.15;;
32734;SDS011;19112;51.076;3.706;2022-11-20T02:45:23;87.27;;;35.20;;
32734;SDS011;19112;51.076;3.706;2022-11-20T02:47:51;84.18;;;33.78;;
32734;SDS011;19112;51.076;3.706;2022-11-20T02:50:26;85.68;;;32.03;;
32734;SDS011;19112;51.076;3.706;2022-11-20T02:52:53;81.05;;;32.17;;
32734;SDS011;19112;51.076;3.706;2022-11-20T02:58:11;84.93;;;33.03;;
32734;SDS011;19112;51.076;3.706;2022-11-20T03:00:38;85.72;;;35.67;;
32734;SDS011;19112;51.076;3.706;2022-11-20T03:03:10;87.50;;;33.78;;
32734;SDS011;19112;51.076;3.706;2022-11-20T03:05:35;84.63;;;34.03;;
32734;SDS011;19112;51.076;3.706;2022-11-20T03:08:07;91.10;;;35.15;;
32734;SDS011;19112;51.076;3.706;2022-11-20T03:13:21;78.88;;;32.92;;
32734;SDS011;19112;51.076;3.706;2022-11-20T03:16:27;81.60;;;33.33;;
32734;SDS011;19112;51.076;3.706;2022-11-20T03:19:02;82.40;;;32.80;;
32734;SDS011;19112;51.076;3.706;2022-11-20T03:21:41;81.43;;;31.77;;
32734;SDS011;19112;51.076;3.706;2022-11-20T03:24:46;72.60;;;30.48;;
32734;SDS011;19112;51.076;3.706;2022-11-20T03:27:43;88.22;;;34.33;;
32734;SDS011;19112;51.076;3.706;2022-11-20T03:30:10;85.75;;;34.90;;
32734;SDS011;19112;51.076;3.706;2022-11-20T03:32:48;71.32;;;30.13;;
32734;SDS011;19112;51.076;3.706;2022-11-20T03:38:14;78.43;;;32.65;;
32734;SDS011;19112;51.076;3.706;2022-11-20T03:44:00;73.38;;;31.85;;
32734;SDS011;19112;51.076;3.706;2022-11-20T03:46:32;73.80;;;29.05;;
32734;SDS011;19112;51.076;3.706;2022-11-20T03:49:20;74.75;;;29.10;;
32734;SDS011;19112;51.076;3.706;2022-11-20T03:52:11;82.20;;;30.98;;
32734;SDS011;19112;51.076;3.706;2022-11-20T03:54:37;78.75;;;31.10;;
32734;SDS011;19112;51.076;3.706;2022-11-20T03:57:24;84.82;;;33.03;;
32734;SDS011;19112;51.076;3.706;2022-11-20T03:59:50;87.18;;;32.22;;
32734;SDS011;19112;51.076;3.706;2022-11-20T04:02:43;82.38;;;31.67;;
32734;SDS011;19112;51.076;3.706;2022-11-20T04:09:17;74.53;;;30.58;;
32734;SDS011;19112;51.076;3.706;2022-11-20T04:11:43;78.05;;;30.10;;
32734;SDS011;19112;51.076;3.706;2022-11-20T04:14:29;74.55;;;30.23;;
32734;SDS011;19112;51.076;3.706;2022-11-20T04:16:57;80.65;;;32.35;;
32734;SDS011;19112;51.076;3.706;2022-11-20T04:19:28;79.32;;;30.08;;
32734;SDS011;19112;51.076;3.706;2022-11-20T04:21:59;81.93;;;31.23;;
32734;SDS011;19112;51.076;3.706;2022-11-20T04:24:51;78.60;;;32.28;;
32734;SDS011;19112;51.076;3.706;2022-11-20T04:27:49;80.40;;;31.88;;
32734;SDS011;19112;51.076;3.706;2022-11-20T04:30:26;79.53;;;31.75;;
32734;SDS011;19112;51.076;3.706;2022-11-20T04:33:16;76.30;;;32.15;;
32734;SDS011;19112;51.076;3.706;2022-11-20T04:35:42;74.90;;;30.38;;
32734;SDS011;19112;51.076;3.706;2022-11-20T04:38:13;82.45;;;30.65;;
32734;SDS011;19112;51.076;3.706;2022-11-20T04:41:05;74.22;;;30.67;;
32734;SDS011;19112;51.076;3.706;2022-11-20T04:44:10;81.57;;;29.92;;
32734;SDS011;19112;51.076;3.706;2022-11-20T04:46:38;77.45;;;30.88;;
32734;SDS011;19112;51.076;3.706;2022-11-20T04:49:11;74.13;;;30.33;;
32734;SDS011;19112;51.076;3.706;2022-11-20T04:54:33;86.80;;;30.83;;
32734;SDS011;19112;51.076;3.706;2022-11-20T04:57:14;75.68;;;29.40;;
32734;SDS011;19112;51.076;3.706;2022-11-20T05:03:04;75.60;;;31.42;;
32734;SDS011;19112;51.076;3.706;2022-11-20T05:06:12;80.18;;;30.27;;
32734;SDS011;19112;51.076;3.706;2022-11-20T05:11:20;95.07;;;34.03;;
32734;SDS011;19112;51.076;3.706;2022-11-20T05:14:13;82.20;;;32.75;;
32734;SDS011;19112;51.076;3.706;2022-11-20T05:16:44;82.88;;;31.42;;
32734;SDS011;19112;51.076;3.706;2022-11-20T05:19:32;97.00;;;34.05;;
32734;SDS011;19112;51.076;3.706;2022-11-20T05:22:04;87.38;;;33.38;;
32734;SDS011;19112;51.076;3.706;2022-11-20T05:24:41;94.55;;;33.72;;
32734;SDS011;19112;51.076;3.706;2022-11-20T05:27:25;93.57;;;32.72;;
32734;SDS011;19112;51.076;3.706;2022-11-20T05:29:55;89.65;;;32.90;;
32734;SDS011;19112;51.076;3.706;2022-11-20T05:32:27;100.15;;;34.22;;
32734;SDS011;19112;51.076;3.706;2022-11-20T05:35:13;96.30;;;34.13;;
32734;SDS011;19112;51.076;3.706;2022-11-20T05:38:25;99.78;;;32.95;;
32734;SDS011;19112;51.076;3.706;2022-11-20T05:41:19;106.47;;;36.65;;
32734;SDS011;19112;51.076;3.706;2022-11-20T05:43:52;108.68;;;34.45;;
32734;SDS011;19112;51.076;3.706;2022-11-20T05:46:19;103.70;;;35.40;;
32734;SDS011;19112;51.076;3.706;2022-11-20T05:48:46;96.90;;;34.65;;
32734;SDS011;19112;51.076;3.706;2022-11-20T05:51:19;102.22;;;35.72;;
32734;SDS011;19112;51.076;3.706;2022-11-20T05:53:48;106.05;;;35.88;;
32734;SDS011;19112;51.076;3.706;2022-11-20T05:56:18;102.07;;;36.63;;
32734;SDS011;19112;51.076;3.706;2022-11-20T05:58:57;102.22;;;34.22;;
32734;SDS011;19112;51.076;3.706;2022-11-20T06:01:25;105.45;;;34.05;;
32734;SDS011;19112;51.076;3.706;2022-11-20T06:03:56;99.47;;;34.28;;
32734;SDS011;19112;51.076;3.706;2022-11-20T06:06:34;103.93;;;34.50;;
32734;SDS011;19112;51.076;3.706;2022-11-20T06:09:09;103.38;;;32.00;;
32734;SDS011;19112;51.076;3.706;2022-11-20T06:11:36;102.15;;;35.83;;
32734;SDS011;19112;51.076;3.706;2022-11-20T06:14:08;97.10;;;31.55;;
32734;SDS011;19112;51.076;3.706;2022-11-20T06:16:33;95.80;;;34.50;;
32734;SDS011;19112;51.076;3.706;2022-11-20T06:19:04;89.35;;;33.67;;
32734;SDS011;19112;51.076;3.706;2022-11-20T06:21:56;94.70;;;32.70;;
32734;SDS011;19112;51.076;3.706;2022-11-20T06:24:24;97.50;;;33.72;;
32734;SDS011;19112;51.076;3.706;2022-11-20T06:26:53;86.65;;;30.35;;
32734;SDS011;19112;51.076;3.706;2022-11-20T06:29:23;85.43;;;29.65;;
32734;SDS011;19112;51.076;3.706;2022-11-20T06:32:00;92.43;;;31.90;;
32734;SDS011;19112;51.076;3.706;2022-11-20T06:34:32;82.20;;;30.25;;
32734;SDS011;19112;51.076;3.706;2022-11-20T06:37:00;91.50;;;31.90;;
32734;SDS011;19112;51.076;3.706;2022-11-20T06:39:28;100.47;;;32.35;;
32734;SDS011;19112;51.076;3.706;2022-11-20T06:42:10;94.47;;;32.65;;
32734;SDS011;19112;51.076;3.706;2022-11-20T06:44:41;91.13;;;32.05;;
32734;SDS011;19112;51.076;3.706;2022-11-20T06:47:19;93.00;;;33.60;;
32734;SDS011;19112;51.076;3.706;2022-11-20T06:49:48;84.53;;;30.70;;
32734;SDS011;19112;51.076;3.706;2022-11-20T06:52:14;87.70;;;30.95;;
32734;SDS011;19112;51.076;3.706;2022-11-20T06:54:41;92.85;;;30.95;;
32734;SDS011;19112;51.076;3.706;2022-11-20T06:57:08;81.60;;;28.45;;
32734;SDS011;19112;51.076;3.706;2022-11-20T06:59:39;89.55;;;32.47;;
32734;SDS011;19112;51.076;3.706;2022-11-20T07:04:53;82.82;;;29.15;;
32734;SDS011;19112;51.076;3.706;2022-11-20T07:07:21;90.30;;;29.75;;
32734;SDS011;19112;51.076;3.706;2022-11-20T07:09:50;81.38;;;28.90;;
32734;SDS011;19112;51.076;3.706;2022-11-20T07:12:16;87.72;;;29.17;;
32734;SDS011;19112;51.076;3.706;2022-11-20T07:14:44;83.45;;;29.65;;
32734;SDS011;19112;51.076;3.706;2022-11-20T07:17:26;83.60;;;28.75;;
32734;SDS011;19112;51.076;3.706;2022-11-20T07:19:56;88.07;;;30.38;;
32734;SDS011;19112;51.076;3.706;2022-11-20T07:22:29;87.60;;;28.52;;
32734;SDS011;19112;51.076;3.706;2022-11-20T07:24:58;88.28;;;30.40;;
32734;SDS011;19112;51.076;3.706;2022-11-20T07:27:25;89.10;;;30.50;;
32734;SDS011;19112;51.076;3.706;2022-11-20T07:29:56;84.18;;;29.67;;
32734;SDS011;19112;51.076;3.706;2022-11-20T07:35:28;79.43;;;28.58;;
32734;SDS011;19112;51.076;3.706;2022-11-20T07:37:55;86.93;;;30.50;;
32734;SDS011;19112;51.076;3.706;2022-11-20T07:40:31;89.15;;;29.90;;
32734;SDS011;19112;51.076;3.706;2022-11-20T07:42:59;92.53;;;29.40;;
32734;SDS011;19112;51.076;3.706;2022-11-20T07:45:25;81.68;;;29.60;;
32734;SDS011;19112;51.076;3.706;2022-11-20T07:47:52;88.00;;;30.77;;
32734;SDS011;19112;51.076;3.706;2022-11-20T07:50:18;83.20;;;29.58;;
32734;SDS011;19112;51.076;3.706;2022-11-20T07:52:44;82.88;;;28.58;;
32734;SDS011;19112;51.076;3.706;2022-11-20T07:55:13;86.82;;;30.38;;
32734;SDS011;19112;51.076;3.706;2022-11-20T07:57:39;78.57;;;27.80;;
32734;SDS011;19112;51.076;3.706;2022-11-20T08:00:24;79.70;;;29.45;;
32734;SDS011;19112;51.076;3.706;2022-11-20T08:03:20;92.55;;;32.22;;
32734;SDS011;19112;51.076;3.706;2022-11-20T08:06:04;89.03;;;29.13;;
32734;SDS011;19112;51.076;3.706;2022-11-20T08:08:33;90.45;;;30.83;;
32734;SDS011;19112;51.076;3.706;2022-11-20T08:11:24;81.25;;;29.38;;
32734;SDS011;19112;51.076;3.706;2022-11-20T08:14:11;91.85;;;31.63;;
32734;SDS011;19112;51.076;3.706;2022-11-20T08:17:00;89.55;;;29.83;;
32734;SDS011;19112;51.076;3.706;2022-11-20T08:19:37;85.25;;;28.10;;
32734;SDS011;19112;51.076;3.706;2022-11-20T08:22:03;87.03;;;30.23;;
32734;SDS011;19112;51.076;3.706;2022-11-20T08:24:33;86.55;;;28.25;;
32734;SDS011;19112;51.076;3.706;2022-11-20T08:26:59;82.03;;;29.85;;
32734;SDS011;19112;51.076;3.706;2022-11-20T08:29:26;89.53;;;30.10;;
32734;SDS011;19112;51.076;3.706;2022-11-20T08:31:52;82.70;;;29.50;;
32734;SDS011;19112;51.076;3.706;2022-11-20T08:34:18;82.78;;;29.50;;
32734;SDS011;19112;51.076;3.706;2022-11-20T08:36:45;92.30;;;31.52;;
32734;SDS011;19112;51.076;3.706;2022-11-20T08:41:41;91.78;;;31.40;;
32734;SDS011;19112;51.076;3.706;2022-11-20T08:44:08;86.43;;;30.90;;
32734;SDS011;19112;51.076;3.706;2022-11-20T08:46:43;86.55;;;30.33;;
32734;SDS011;19112;51.076;3.706;2022-11-20T08:49:13;81.38;;;28.55;;
32734;SDS011;19112;51.076;3.706;2022-11-20T08:51:41;97.63;;;32.30;;
32734;SDS011;19112;51.076;3.706;2022-11-20T08:54:11;88.28;;;30.33;;
32734;SDS011;19112;51.076;3.706;2022-11-20T08:56:38;90.22;;;29.27;;
32734;SDS011;19112;51.076;3.706;2022-11-20T08:59:18;87.15;;;29.20;;
32734;SDS011;19112;51.076;3.706;2022-11-20T09:01:49;84.28;;;29.33;;
32734;SDS011;19112;51.076;3.706;2022-11-20T09:04:28;81.43;;;28.67;;
32734;SDS011;19112;51.076;3.706;2022-11-20T09:06:57;78.43;;;28.00;;
32734;SDS011;19112;51.076;3.706;2022-11-20T09:09:28;76.90;;;27.23;;
32734;SDS011;19112;51.076;3.706;2022-11-20T09:17:09;80.43;;;28.20;;
32734;SDS011;19112;51.076;3.706;2022-11-20T09:19:39;71.30;;;25.67;;
32734;SDS011;19112;51.076;3.706;2022-11-20T09:22:11;75.55;;;28.50;;
32734;SDS011;19112;51.076;3.706;2022-11-20T09:24:36;77.40;;;27.08;;
32734;SDS011;19112;51.076;3.706;2022-11-20T09:27:04;77.45;;;27.15;;
32734;SDS011;19112;51.076;3.706;2022-11-20T09:29:36;66.80;;;25.20;;
32734;SDS011;19112;51.076;3.706;2022-11-20T09:32:02;68.65;;;26.10;;
32734;SDS011;19112;51.076;3.706;2022-11-20T09:34:28;55.30;;;23.48;;
32734;SDS011;19112;51.076;3.706;2022-11-20T09:37:08;64.80;;;26.08;;
32734;SDS011;19112;51.076;3.706;2022-11-20T09:39:34;62.78;;;24.20;;
32734;SDS011;19112;51.076;3.706;2022-11-20T09:50:31;52.70;;;20.45;;
32734;SDS011;19112;51.076;3.706;2022-11-20T09:56:10;53.00;;;19.92;;
32734;SDS011;19112;51.076;3.706;2022-11-20T09:58:45;52.92;;;20.00;;
32734;SDS011;19112;51.076;3.706;2022-11-20T10:01:26;47.13;;;18.58;;
32734;SDS011;19112;51.076;3.706;2022-11-20T10:04:09;45.67;;;19.35;;
32734;SDS011;19112;51.076;3.706;2022-11-20T10:07:16;43.28;;;18.77;;
32734;SDS011;19112;51.076;3.706;2022-11-20T10:10:17;44.47;;;17.83;;
32734;SDS011;19112;51.076;3.706;2022-11-20T10:15:40;44.47;;;16.35;;
32734;SDS011;19112;51.076;3.706;2022-11-20T10:18:21;38.38;;;15.73;;
32734;SDS011;19112;51.076;3.706;2022-11-20T10:24:27;40.00;;;16.73;;
32734;SDS011;19112;51.076;3.706;2022-11-20T10:27:25;39.60;;;17.13;;
32734;SDS011;19112;51.076;3.706;2022-11-20T10:30:21;35.63;;;14.55;;
32734;SDS011;19112;51.076;3.706;2022-11-20T10:32:51;35.05;;;14.05;;
32734;SDS011;19112;51.076;3.706;2022-11-20T10:35:37;38.63;;;13.90;;
32734;SDS011;19112;51.076;3.706;2022-11-20T10:38:14;35.22;;;13.07;;
32734;SDS011;19112;51.076;3.706;2022-11-20T10:40:54;32.80;;;12.32;;
32734;SDS011;19112;51.076;3.706;2022-11-20T10:43:44;28.83;;;11.02;;
32734;SDS011;19112;51.076;3.706;2022-11-20T10:46:20;28.80;;;10.88;;
32734;SDS011;19112;51.076;3.706;2022-11-20T10:48:48;26.42;;;9.60;;
32734;SDS011;19112;51.076;3.706;2022-11-20T10:56:46;24.95;;;8.05;;
32734;SDS011;19112;51.076;3.706;2022-11-20T11:02:17;21.00;;;7.28;;
32734;SDS011;19112;51.076;3.706;2022-11-20T11:04:58;23.70;;;7.25;;
32734;SDS011;19112;51.076;3.706;2022-11-20T11:07:58;18.88;;;6.13;;
32734;SDS011;19112;51.076;3.706;2022-11-20T11:10:46;24.15;;;6.93;;
32734;SDS011;19112;51.076;3.706;2022-11-20T11:13:23;22.33;;;6.88;;
32734;SDS011;19112;51.076;3.706;2022-11-20T11:15:51;22.23;;;6.82;;
32734;SDS011;19112;51.076;3.706;2022-11-20T11:18:28;19.92;;;6.40;;
32734;SDS011;19112;51.076;3.706;2022-11-20T11:20:57;19.80;;;6.93;;
32734;SDS011;19112;51.076;3.706;2022-11-20T11:23:33;24.83;;;6.60;;
32734;SDS011;19112;51.076;3.706;2022-11-20T11:26:23;20.13;;;6.38;;
32734;SDS011;19112;51.076;3.706;2022-11-20T11:28:53;20.43;;;6.60;;
32734;SDS011;19112;51.076;3.706;2022-11-20T11:31:33;20.45;;;5.97;;
32734;SDS011;19112;51.076;3.706;2022-11-20T11:34:04;19.85;;;6.30;;
32734;SDS011;19112;51.076;3.706;2022-11-20T11:36:41;20.23;;;5.47;;
32734;SDS011;19112;51.076;3.706;2022-11-20T11:39:17;16.75;;;5.03;;
32734;SDS011;19112;51.076;3.706;2022-11-20T11:41:46;17.27;;;4.78;;
32734;SDS011;19112;51.076;3.706;2022-11-20T11:44:15;15.82;;;4.60;;
32734;SDS011;19112;51.076;3.706;2022-11-20T11:47:43;14.32;;;5.25;;
32734;SDS011;19112;51.076;3.706;2022-11-20T11:58:34;18.17;;;5.00;;
32734;SDS011;19112;51.076;3.706;2022-11-20T12:04:37;17.05;;;5.30;;
32734;SDS011;19112;51.076;3.706;2022-11-20T12:07:20;19.80;;;6.05;;
32734;SDS011;19112;51.076;3.706;2022-11-20T12:10:12;18.98;;;5.72;;
32734;SDS011;19112;51.076;3.706;2022-11-20T12:12:49;17.45;;;5.70;;
32734;SDS011;19112;51.076;3.706;2022-11-20T12:15:30;17.60;;;5.90;;
32734;SDS011;19112;51.076;3.706;2022-11-20T12:17:59;17.00;;;5.65;;
32734;SDS011;19112;51.076;3.706;2022-11-20T12:20:35;18.95;;;6.63;;
32734;SDS011;19112;51.076;3.706;2022-11-20T12:23:18;20.45;;;5.57;;
32734;SDS011;19112;51.076;3.706;2022-11-20T12:26:33;17.83;;;6.18;;
32734;SDS011;19112;51.076;3.706;2022-11-20T12:51:24;19.15;;;7.43;;
32734;SDS011;19112;51.076;3.706;2022-11-20T13:13:43;20.88;;;6.95;;
32734;SDS011;19112;51.076;3.706;2022-11-20T13:19:34;17.55;;;6.97;;
32734;SDS011;19112;51.076;3.706;2022-11-20T13:22:00;17.10;;;6.60;;
32734;SDS011;19112;51.076;3.706;2022-11-20T13:24:27;15.75;;;6.38;;
32734;SDS011;19112;51.076;3.706;2022-11-20T13:26:59;16.10;;;6.38;;
32734;SDS011;19112;51.076;3.706;2022-11-20T13:29:37;18.42;;;6.20;;
32734;SDS011;19112;51.076;3.706;2022-11-20T13:34:50;17.35;;;5.75;;
32734;SDS011;19112;51.076;3.706;2022-11-20T13:37:29;16.02;;;5.80;;
32734;SDS011;19112;51.076;3.706;2022-11-20T13:42:35;11.45;;;4.75;;
32734;SDS011;19112;51.076;3.706;2022-11-20T13:45:09;16.27;;;5.30;;
32734;SDS011;19112;51.076;3.706;2022-11-20T13:47:54;13.60;;;5.15;;
32734;SDS011;19112;51.076;3.706;2022-11-20T13:50:27;12.63;;;5.63;;
32734;SDS011;19112;51.076;3.706;2022-11-20T13:56:15;15.38;;;4.97;;
32734;SDS011;19112;51.076;3.706;2022-11-20T13:58:59;11.10;;;4.82;;
32734;SDS011;19112;51.076;3.706;2022-11-20T14:01:37;14.88;;;5.93;;
32734;SDS011;19112;51.076;3.706;2022-11-20T14:04:09;14.02;;;4.82;;
32734;SDS011;19112;51.076;3.706;2022-11-20T14:06:46;22.23;;;8.50;;
32734;SDS011;19112;51.076;3.706;2022-11-20T14:09:24;17.90;;;5.93;;
32734;SDS011;19112;51.076;3.706;2022-11-20T14:11:56;19.40;;;8.63;;
32734;SDS011;19112;51.076;3.706;2022-11-20T14:14:23;17.02;;;6.53;;
32734;SDS011;19112;51.076;3.706;2022-11-20T14:16:52;14.88;;;5.45;;
32734;SDS011;19112;51.076;3.706;2022-11-20T14:19:32;20.08;;;8.10;;
32734;SDS011;19112;51.076;3.706;2022-11-20T14:24:43;19.75;;;9.05;;
32734;SDS011;19112;51.076;3.706;2022-11-20T14:27:14;19.85;;;10.38;;
32734;SDS011;19112;51.076;3.706;2022-11-20T14:29:46;24.42;;;11.25;;
32734;SDS011;19112;51.076;3.706;2022-11-20T14:32:15;21.52;;;8.70;;
32734;SDS011;19112;51.076;3.706;2022-11-20T14:34:47;20.05;;;9.13;;
32734;SDS011;19112;51.076;3.706;2022-11-20T14:37:22;21.23;;;8.45;;
32734;SDS011;19112;51.076;3.706;2022-11-20T14:39:58;23.38;;;8.25;;
32734;SDS011;19112;51.076;3.706;2022-11-20T14:42:26;19.60;;;7.65;;
32734;SDS011;19112;51.076;3.706;2022-11-20T14:44:59;13.98;;;6.30;;
32734;SDS011;19112;51.076;3.706;2022-11-20T14:47:27;20.02;;;7.38;;
32734;SDS011;19112;51.076;3.706;2022-11-20T14:49:55;21.15;;;9.15;;
32734;SDS011;19112;51.076;3.706;2022-11-20T14:52:24;19.38;;;7.97;;
32734;SDS011;19112;51.076;3.706;2022-11-20T14:54:53;17.95;;;6.75;;
32734;SDS011;19112;51.076;3.706;2022-11-20T15:00:06;18.38;;;5.45;;
32734;SDS011;19112;51.076;3.706;2022-11-20T15:02:45;21.42;;;4.72;;
32734;SDS011;19112;51.076;3.706;2022-11-20T15:05:14;19.55;;;5.38;;
32734;SDS011;19112;51.076;3.706;2022-11-20T15:07:43;18.38;;;5.18;;
32734;SDS011;19112;51.076;3.706;2022-11-20T15:18:11;23.73;;;4.60;;
32734;SDS011;19112;51.076;3.706;2022-11-20T15:20:39;20.10;;;4.53;;
32734;SDS011;19112;51.076;3.706;2022-11-20T15:23:17;20.42;;;4.05;;
32734;SDS011;19112;51.076;3.706;2022-11-20T15:25:44;23.33;;;4.75;;
32734;SDS011;19112;51.076;3.706;2022-11-20T15:28:23;35.55;;;7.10;;
32734;SDS011;19112;51.076;3.706;2022-11-20T15:31:18;22.73;;;4.32;;
32734;SDS011;19112;51.076;3.706;2022-11-20T15:33:47;31.05;;;5.30;;
32734;SDS011;19112;51.076;3.706;2022-11-20T15:36:13;22.88;;;4.63;;
32734;SDS011;19112;51.076;3.706;2022-11-20T15:38:39;22.15;;;4.13;;
32734;SDS011;19112;51.076;3.706;2022-11-20T15:41:05;16.88;;;3.90;;
32734;SDS011;19112;51.076;3.706;2022-11-20T15:43:32;24.63;;;4.70;;
32734;SDS011;19112;51.076;3.706;2022-11-20T15:45:59;22.33;;;3.92;;
32734;SDS011;19112;51.076;3.706;2022-11-20T15:48:32;20.17;;;4.00;;
32734;SDS011;19112;51.076;3.706;2022-11-20T15:51:24;24.35;;;4.93;;
32734;SDS011;19112;51.076;3.706;2022-11-20T15:54:01;27.83;;;5.20;;
32734;SDS011;19112;51.076;3.706;2022-11-20T15:56:37;25.95;;;5.00;;
32734;SDS011;19112;51.076;3.706;2022-11-20T15:59:03;31.85;;;4.43;;
32734;SDS011;19112;51.076;3.706;2022-11-20T16:01:29;30.38;;;5.25;;
32734;SDS011;19112;51.076;3.706;2022-11-20T16:03:55;31.42;;;6.85;;
32734;SDS011;19112;51.076;3.706;2022-11-20T16:06:21;32.63;;;5.65;;
32734;SDS011;19112;51.076;3.706;2022-11-20T16:08:47;30.05;;;5.15;;
32734;SDS011;19112;51.076;3.706;2022-11-20T16:11:13;30.67;;;4.75;;
32734;SDS011;19112;51.076;3.706;2022-11-20T16:13:41;29.50;;;4.53;;
32734;SDS011;19112;51.076;3.706;2022-11-20T16:16:27;22.20;;;4.63;;
32734;SDS011;19112;51.076;3.706;2022-11-20T16:19:00;21.50;;;4.22;;
32734;SDS011;19112;51.076;3.706;2022-11-20T16:21:26;19.77;;;3.42;;
32734;SDS011;19112;51.076;3.706;2022-11-20T16:23:57;21.23;;;4.28;;
32734;SDS011;19112;51.076;3.706;2022-11-20T16:26:27;31.40;;;5.22;;
32734;SDS011;19112;51.076;3.706;2022-11-20T16:28:53;32.35;;;5.13;;
32734;SDS011;19112;51.076;3.706;2022-11-20T16:31:20;28.60;;;4.78;;
32734;SDS011;19112;51.076;3.706;2022-11-20T16:33:50;26.88;;;5.22;;
32734;SDS011;19112;51.076;3.706;2022-11-20T16:36:18;28.20;;;5.63;;
32734;SDS011;19112;51.076;3.706;2022-11-20T16:38:45;23.20;;;5.63;;
32734;SDS011;19112;51.076;3.706;2022-11-20T16:41:11;29.70;;;9.82;;
32734;SDS011;19112;51.076;3.706;2022-11-20T16:43:49;36.28;;;9.27;;
32734;SDS011;19112;51.076;3.706;2022-11-20T16:46:18;29.42;;;6.80;;
32734;SDS011;19112;51.076;3.706;2022-11-20T16:48:53;34.40;;;8.50;;
32734;SDS011;19112;51.076;3.706;2022-11-20T16:51:28;30.70;;;7.60;;
32734;SDS011;19112;51.076;3.706;2022-11-20T16:53:55;29.85;;;7.35;;
32734;SDS011;19112;51.076;3.706;2022-11-20T16:56:23;32.05;;;6.63;;
32734;SDS011;19112;51.076;3.706;2022-11-20T16:58:52;32.13;;;8.40;;
32734;SDS011;19112;51.076;3.706;2022-11-20T17:01:20;38.80;;;11.13;;
32734;SDS011;19112;51.076;3.706;2022-11-20T17:03:54;35.05;;;9.93;;
32734;SDS011;19112;51.076;3.706;2022-11-20T17:06:27;38.85;;;13.90;;
32734;SDS011;19112;51.076;3.706;2022-11-20T17:09:03;55.40;;;13.50;;
32734;SDS011;19112;51.076;3.706;2022-11-20T17:11:29;40.15;;;12.77;;
32734;SDS011;19112;51.076;3.706;2022-11-20T17:13:57;41.80;;;10.93;;
32734;SDS011;19112;51.076;3.706;2022-11-20T17:16:28;43.13;;;8.85;;
32734;SDS011;19112;51.076;3.706;2022-11-20T17:18:56;28.60;;;7.38;;
32734;SDS011;19112;51.076;3.706;2022-11-20T17:21:23;22.75;;;4.97;;
32734;SDS011;19112;51.076;3.706;2022-11-20T17:23:49;137.27;;;12.75;;
32734;SDS011;19112;51.076;3.706;2022-11-20T17:26:19;29.42;;;5.78;;
32734;SDS011;19112;51.076;3.706;2022-11-20T17:28:57;22.42;;;4.90;;
32734;SDS011;19112;51.076;3.706;2022-11-20T17:31:25;35.25;;;8.18;;
32734;SDS011;19112;51.076;3.706;2022-11-20T17:33:53;33.83;;;6.82;;
32734;SDS011;19112;51.076;3.706;2022-11-20T17:36:19;32.42;;;7.50;;
32734;SDS011;19112;51.076;3.706;2022-11-20T17:38:45;35.65;;;7.95;;
32734;SDS011;19112;51.076;3.706;2022-11-20T17:41:13;41.15;;;12.52;;
32734;SDS011;19112;51.076;3.706;2022-11-20T17:43:46;43.45;;;15.68;;
32734;SDS011;19112;51.076;3.706;2022-11-20T17:46:20;46.08;;;11.65;;
32734;SDS011;19112;51.076;3.706;2022-11-20T17:48:48;42.97;;;15.20;;
32734;SDS011;19112;51.076;3.706;2022-11-20T17:51:16;40.42;;;14.55;;
32734;SDS011;19112;51.076;3.706;2022-11-20T17:53:52;44.03;;;8.60;;
32734;SDS011;19112;51.076;3.706;2022-11-20T17:56:21;36.90;;;10.50;;
32734;SDS011;19112;51.076;3.706;2022-11-20T17:59:06;32.15;;;8.73;;
32734;SDS011;19112;51.076;3.706;2022-11-20T18:01:35;38.65;;;8.75;;
32734;SDS011;19112;51.076;3.706;2022-11-20T18:04:02;52.90;;;18.83;;
32734;SDS011;19112;51.076;3.706;2022-11-20T18:06:29;37.90;;;8.50;;
32734;SDS011;19112;51.076;3.706;2022-11-20T18:08:58;42.70;;;15.93;;
32734;SDS011;19112;51.076;3.706;2022-11-20T18:11:27;38.30;;;10.43;;
32734;SDS011;19112;51.076;3.706;2022-11-20T18:13:57;40.63;;;11.82;;
32734;SDS011;19112;51.076;3.706;2022-11-20T18:16:44;33.08;;;8.95;;
32734;SDS011;19112;51.076;3.706;2022-11-20T18:19:14;34.85;;;7.03;;